Corstorphine, United Kingdom
Current Conditions -  °F | °C
As of 2:50 AM on Tuesday 21 Oct 2014 (Local Time) from EGPH Reporting Station
Clear Clear  
Wind Chill: 55°   Ceiling: Unl
Heat Index: 55°   Visibility: 6mi
Dew Point: 50°   Wind: 22mph
Humidity: 82%   Direction: 200°SSW
Pressure: 29.15"   Gusts: NA
Location:  55.95°N, 3.32°W
Report Text: EGPH 210150Z 20019KT 9999 NSC 13/10 Q0987
Loading
Personal Weather Stations






























Interactive Weather Map New forecast layout! Learn more

10-Day Weather Forecast

Advertisements
Track Severe Weather on mobile